Med Cerkezkoy — TCA4407 — position and weather

sailwx.info

Track history (hours):
 
Tides and Currents Weather Stations Pressure Air Temp Water Temp Dewpoint Dewpoint Depression Visibility Wind Speed Wind Dir Waves Ship Positions

Med Cerkezkoy

Last reported at 2018-Feb-10 07:01 UTC. Time now 2018-Feb-23 05:00 UTC.
Position N 31°17' E 029°43'.
Warning: this ship's position is 12 days out of date.

Length 140 m; draft 8.8 m.

Type: Ship (hazmat cat A). MMSI: 271044659.

Date/timePositionNaut miles runAvg speedWind from/ knotsBaromVisibWave heightAir tempDewpointWater temp
2018-Feb-10 07:01N 31°17' E 029°43'0 8.9
2018-Feb-10 07:00N 31°17' E 029°43'47710.1
2018-Feb-08 07:30N 37°33' E 023°46'10 9.8
2018-Feb-08 06:30N 37°42' E 023°41'510.0
2018-Feb-08 06:00N 37°47' E 023°39'5 9.6
2018-Feb-08 05:30N 37°52' E 023°37'6 1.5
2018-Feb-08 01:30N 37°57' E 023°36'0 0.0
2018-Feb-08 01:00N 37°57' E 023°36'0 0.0
2018-Feb-08 00:30N 37°57' E 023°36'0 0.0
2018-Feb-08 00:00N 37°57' E 023°36'0 0.0
2018-Feb-07 23:30N 37°57' E 023°36'0 0.0
2018-Feb-07 23:00N 37°57' E 023°36'0 0.0
2018-Feb-07 22:30N 37°57' E 023°36'0 0.0
2018-Feb-07 22:00N 37°57' E 023°36'0 0.0
2018-Feb-07 21:30N 37°57' E 023°36'5 0.4
2018-Feb-07 09:29N 37°52' E 023°33'0 0.1
2018-Feb-07 08:59N 37°52' E 023°33'0 0.1
2018-Feb-07 08:29N 37°52' E 023°33'0 0.0
2018-Feb-07 07:59N 37°52' E 023°33'0 0.1
2018-Feb-07 07:29N 37°52' E 023°33'0 0.0
2018-Feb-07 06:59N 37°52' E 023°33'0 0.0
2018-Feb-07 06:29N 37°52' E 023°33'0 0.0
2018-Feb-07 05:59N 37°52' E 023°33'0 0.1
2018-Feb-07 05:29N 37°52' E 023°33'0 0.1
2018-Feb-07 04:59N 37°52' E 023°33'0 0.0
2018-Feb-07 04:29N 37°52' E 023°33'0 0.1
2018-Feb-07 03:59N 37°52' E 023°33'0 0.1
2018-Feb-07 03:29N 37°52' E 023°33'0 0.0
2018-Feb-07 02:59N 37°52' E 023°33'0 0.0
2018-Feb-07 02:29N 37°52' E 023°33'0 0.1
2018-Feb-07 01:59N 37°52' E 023°33'0 0.0
2018-Feb-07 01:29N 37°52' E 023°33'0 0.0
2018-Feb-07 00:59N 37°52' E 023°33'0 0.1
2018-Feb-07 00:29N 37°52' E 023°33'0 0.0
2018-Feb-06 23:59N 37°52' E 023°33'0 0.0
2018-Feb-06 23:29N 37°52' E 023°33'0 0.1
2018-Feb-06 22:59N 37°52' E 023°33'0 0.1
2018-Feb-06 22:29N 37°52' E 023°33'0 0.1
2018-Feb-06 21:59N 37°52' E 023°33'0 0.0
2018-Feb-06 21:29N 37°52' E 023°33'0 0.0
2018-Feb-06 20:59N 37°53' E 023°33'0 0.0
2018-Feb-06 20:29N 37°53' E 023°33'0 0.0
2018-Feb-06 19:59N 37°53' E 023°33'0 0.1
2018-Feb-06 19:29N 37°53' E 023°33'0 0.0
2018-Feb-06 18:59N 37°53' E 023°33'0 0.0
2018-Feb-06 18:29N 37°53' E 023°33'0 0.1
2018-Feb-06 17:59N 37°53' E 023°33'0 0.0
2018-Feb-06 17:29N 37°53' E 023°33'0 0.0
2018-Feb-06 16:59N 37°53' E 023°33'0 0.0
2018-Feb-06 16:29N 37°53' E 023°33'0 0.1
2018-Feb-06 15:59N 37°53' E 023°33'0 0.1
2018-Feb-06 15:29N 37°53' E 023°33'0 0.0
2018-Feb-06 14:59N 37°53' E 023°33'0 0.0
2018-Feb-06 14:29N 37°53' E 023°33'0 0.0
2018-Feb-06 13:59N 37°53' E 023°33'0 0.0
2018-Feb-06 13:29N 37°53' E 023°33'0 0.0
2018-Feb-06 12:59N 37°53' E 023°33'0 0.0
2018-Feb-06 12:29N 37°53' E 023°33'0 0.1
2018-Feb-06 11:59N 37°53' E 023°33'0 0.1
2018-Feb-06 11:26N 37°53' E 023°33'0 0.0
2018-Feb-06 10:59N 37°53' E 023°33'0 0.0
2018-Feb-06 10:29N 37°53' E 023°33'0 0.2
2018-Feb-06 09:59N 37°53' E 023°33'0 0.1
2018-Feb-06 09:29N 37°52' E 023°33'0 0.0
2018-Feb-06 08:59N 37°52' E 023°33'0 0.0
2018-Feb-06 08:29N 37°52' E 023°33'0 0.1
2018-Feb-06 07:59N 37°52' E 023°33'0 0.0
2018-Feb-06 07:29N 37°52' E 023°33'0 0.0
2018-Feb-06 06:59N 37°52' E 023°33'0 0.1
2018-Feb-06 06:29N 37°52' E 023°33'0 0.1
2018-Feb-06 05:59N 37°52' E 023°33'0 0.0
2018-Feb-06 05:29N 37°52' E 023°33'0 0.1
2018-Feb-06 04:59N 37°52' E 023°33'0 0.1
2018-Feb-06 04:29N 37°52' E 023°33'0 0.1
2018-Feb-06 03:59N 37°52' E 023°33'0 0.1
2018-Feb-06 03:29N 37°52' E 023°33'0 0.1
2018-Feb-06 02:59N 37°52' E 023°33'0 0.3
2018-Feb-06 02:30N 37°53' E 023°33'1 1.0
2018-Feb-06 02:00N 37°52' E 023°34'3 5.3
2018-Feb-06 01:30N 37°51' E 023°37'4 8.2
2018-Feb-06 01:00N 37°48' E 023°41'4 8.7
2018-Feb-06 00:30N 37°44' E 023°43'4 8.4
2018-Feb-06 00:00N 37°41' E 023°46'4 8.7
2018-Feb-05 23:30N 37°39' E 023°50'  
Track history (hours):
 
Tides and Currents Weather Stations Pressure Air Temp Water Temp Dewpoint Dewpoint Depression Visibility Wind Speed Wind Dir Waves Ship Positions

Med Cerkezkoy

Last reported at 2018-Feb-10 07:01 UTC. Time now 2018-Feb-23 05:00 UTC.
Position N 31°17' E 029°43'.
Warning: this ship's position is 12 days out of date.

Length 140 m; draft 8.8 m.

Type: Ship (hazmat cat A). MMSI: 271044659.

Date/timePositionNaut miles runAvg speedWind from/ knotsBaromVisibWave heightAir tempDewpointWater temp
2018-Feb-10 07:01N 31°17' E 029°43'0 8.9
2018-Feb-10 07:00N 31°17' E 029°43'47710.1
2018-Feb-08 07:30N 37°33' E 023°46'10 9.8
2018-Feb-08 06:30N 37°42' E 023°41'510.0
2018-Feb-08 06:00N 37°47' E 023°39'5 9.6
2018-Feb-08 05:30N 37°52' E 023°37'6 1.5
2018-Feb-08 01:30N 37°57' E 023°36'0 0.0
2018-Feb-08 01:00N 37°57' E 023°36'0 0.0
2018-Feb-08 00:30N 37°57' E 023°36'0 0.0
2018-Feb-08 00:00N 37°57' E 023°36'0 0.0
2018-Feb-07 23:30N 37°57' E 023°36'0 0.0
2018-Feb-07 23:00N 37°57' E 023°36'0 0.0
2018-Feb-07 22:30N 37°57' E 023°36'0 0.0
2018-Feb-07 22:00N 37°57' E 023°36'0 0.0
2018-Feb-07 21:30N 37°57' E 023°36'5 0.4
2018-Feb-07 09:29N 37°52' E 023°33'0 0.1
2018-Feb-07 08:59N 37°52' E 023°33'0 0.1
2018-Feb-07 08:29N 37°52' E 023°33'0 0.0
2018-Feb-07 07:59N 37°52' E 023°33'0 0.1
2018-Feb-07 07:29N 37°52' E 023°33'0 0.0
2018-Feb-07 06:59N 37°52' E 023°33'0 0.0
2018-Feb-07 06:29N 37°52' E 023°33'0 0.0
2018-Feb-07 05:59N 37°52' E 023°33'0 0.1
2018-Feb-07 05:29N 37°52' E 023°33'0 0.1
2018-Feb-07 04:59N 37°52' E 023°33'0 0.0
2018-Feb-07 04:29N 37°52' E 023°33'0 0.1
2018-Feb-07 03:59N 37°52' E 023°33'0 0.1
2018-Feb-07 03:29N 37°52' E 023°33'0 0.0
2018-Feb-07 02:59N 37°52' E 023°33'0 0.0
2018-Feb-07 02:29N 37°52' E 023°33'0 0.1
2018-Feb-07 01:59N 37°52' E 023°33'0 0.0
2018-Feb-07 01:29N 37°52' E 023°33'0 0.0
2018-Feb-07 00:59N 37°52' E 023°33'0 0.1
2018-Feb-07 00:29N 37°52' E 023°33'0 0.0
2018-Feb-06 23:59N 37°52' E 023°33'0 0.0
2018-Feb-06 23:29N 37°52' E 023°33'0 0.1
2018-Feb-06 22:59N 37°52' E 023°33'0 0.1
2018-Feb-06 22:29N 37°52' E 023°33'0 0.1
2018-Feb-06 21:59N 37°52' E 023°33'0 0.0
2018-Feb-06 21:29N 37°52' E 023°33'0 0.0
2018-Feb-06 20:59N 37°53' E 023°33'0 0.0
2018-Feb-06 20:29N 37°53' E 023°33'0 0.0
2018-Feb-06 19:59N 37°53' E 023°33'0 0.1
2018-Feb-06 19:29N 37°53' E 023°33'0 0.0
2018-Feb-06 18:59N 37°53' E 023°33'0 0.0
2018-Feb-06 18:29N 37°53' E 023°33'0 0.1
2018-Feb-06 17:59N 37°53' E 023°33'0 0.0
2018-Feb-06 17:29N 37°53' E 023°33'0 0.0
2018-Feb-06 16:59N 37°53' E 023°33'0 0.0
2018-Feb-06 16:29N 37°53' E 023°33'0 0.1
2018-Feb-06 15:59N 37°53' E 023°33'0 0.1
2018-Feb-06 15:29N 37°53' E 023°33'0 0.0
2018-Feb-06 14:59N 37°53' E 023°33'0 0.0
2018-Feb-06 14:29N 37°53' E 023°33'0 0.0
2018-Feb-06 13:59N 37°53' E 023°33'0 0.0
2018-Feb-06 13:29N 37°53' E 023°33'0 0.0
2018-Feb-06 12:59N 37°53' E 023°33'0 0.0
2018-Feb-06 12:29N 37°53' E 023°33'0 0.1
2018-Feb-06 11:59N 37°53' E 023°33'0 0.1
2018-Feb-06 11:26N 37°53' E 023°33'0 0.0
2018-Feb-06 10:59N 37°53' E 023°33'0 0.0
2018-Feb-06 10:29N 37°53' E 023°33'0 0.2
2018-Feb-06 09:59N 37°53' E 023°33'0 0.1
2018-Feb-06 09:29N 37°52' E 023°33'0 0.0
2018-Feb-06 08:59N 37°52' E 023°33'0 0.0
2018-Feb-06 08:29N 37°52' E 023°33'0 0.1
2018-Feb-06 07:59N 37°52' E 023°33'0 0.0
2018-Feb-06 07:29N 37°52' E 023°33'0 0.0
2018-Feb-06 06:59N 37°52' E 023°33'0 0.1
2018-Feb-06 06:29N 37°52' E 023°33'0 0.1
2018-Feb-06 05:59N 37°52' E 023°33'0 0.0
2018-Feb-06 05:29N 37°52' E 023°33'0 0.1
2018-Feb-06 04:59N 37°52' E 023°33'0 0.1
2018-Feb-06 04:29N 37°52' E 023°33'0 0.1
2018-Feb-06 03:59N 37°52' E 023°33'0 0.1
2018-Feb-06 03:29N 37°52' E 023°33'0 0.1
2018-Feb-06 02:59N 37°52' E 023°33'0 0.3
2018-Feb-06 02:30N 37°53' E 023°33'1 1.0
2018-Feb-06 02:00N 37°52' E 023°34'3 5.3
2018-Feb-06 01:30N 37°51' E 023°37'4 8.2
2018-Feb-06 01:00N 37°48' E 023°41'4 8.7
2018-Feb-06 00:30N 37°44' E 023°43'4 8.4
2018-Feb-06 00:00N 37°41' E 023°46'4 8.7
2018-Feb-05 23:30N 37°39' E 023°50'  

Dump ship's entire track history